Darstellungsparameter: Aktuell verwendete Einstellungen:
Skalierung der Graphiken ... ?
xyx+y,   Skalierungsfaktor:      Skalierung: Modus: x, Faktor: 1
Darstellungszeitraum ... ?
Vom - - bis: - -   Zeitraum: 29.08.2017 - 28.09.2017
Min/Max/Avg-Anzeige ... ?
Zeige MMA aktuell
Zeige MMA Monat
Zeige MMA alles
Zeige --A aktuell
Zeige --A Monat
Zeige --A alles
Keine MMA-Anzeige
MMA:
Average (ber die Originaldaten)
MMA-Basis: 29.08.2017 - 28.09.2017
Quicknavigation für Darstellung... ?
Tage:      1T, 2T, 3T, 5T -1T -2T -3T -5T +1T +2T +3T +5T
Wochen: 1W, 2W, 3W -1W -2W -3W +1W +2W +3W
Monate: 1M, 3M, 6M -1M -3M -6M +1M +3M +6M
Jahre:    1J, 3J, 5J, 10J -1J -3J -5J -10J +1J +3J +5J +10J
Nutze für die Darstellung ... ?
Originaldaten oder ...
Mittelwerte Minima Maxima auf...
Stundenbasis Tagesbasis Wochenbasis
Monatsbasis Jahresbasis      Datenbasis: Mittelwerte auf Stundenbasis
Darstellen als:
Statistik (Auto) Statistik J:M      Darstellung:
Zur Graphik,    zurück zur Übersicht aller Sensoren.
 
Tabellarische Datenbersicht: ?
 
Sensor: Nr:Datum:Temp:Abs-Feuchte:Windchill:Wind:
Aussen-T/F 1 29-08-2017 00:00:00 17.49167 C 13.81 g/m*3 17.49 C 0 km/h
2 29-08-2017 01:00:00 16.94167 C 13.55 g/m*3 16.94 C 0 km/h
3 29-08-2017 02:00:00 16.46667 C 13.24 g/m*3 16.47 C 0 km/h
4 29-08-2017 03:00:00 15.95 C 12.9 g/m*3 15.95 C 0 km/h
5 29-08-2017 04:00:00 15.58333 C 12.67 g/m*3 15.58 C 0 km/h
6 29-08-2017 05:00:00 15.19167 C 12.4 g/m*3 15.19 C 0 km/h
7 29-08-2017 06:00:00 14.84167 C 12.19 g/m*3 14.84 C 0 km/h
8 29-08-2017 07:00:00 14.75 C 12.14 g/m*3 14.75 C 0 km/h
9 29-08-2017 08:00:00 15.46667 C 12.8 g/m*3 15.47 C 0 km/h
10 29-08-2017 09:00:00 16 C 13.22 g/m*3 16 C 0 km/h
11 29-08-2017 10:00:00 17.4 C 14.38 g/m*3 17.4 C 0 km/h
12 29-08-2017 11:00:00 19.00833 C 15.76 g/m*3 19.01 C 0 km/h
13 29-08-2017 12:00:00 21.15833 C 17.21 g/m*3 21.16 C 0 km/h
14 29-08-2017 13:00:00 23.51667 C 17.32 g/m*3 23.52 C 0 km/h
15 29-08-2017 14:00:00 25.00833 C 16.89 g/m*3 25.01 C 0 km/h
16 29-08-2017 15:00:00 26.18333 C 15.97 g/m*3 26.18 C 0 km/h
17 29-08-2017 16:00:00 27.45833 C 16.89 g/m*3 27.46 C 0 km/h
18 29-08-2017 17:00:00 28.86667 C 18.13 g/m*3 28.87 C 0 km/h
19 29-08-2017 18:00:00 27.15 C 17.8 g/m*3 27.15 C 0 km/h
20 29-08-2017 19:00:00 24.76667 C 16.6 g/m*3 24.77 C 0 km/h
21 29-08-2017 20:00:00 22.00833 C 15.36 g/m*3 22.01 C 0 km/h
22 29-08-2017 21:00:00 20.6 C 15.11 g/m*3 20.6 C 0 km/h
23 29-08-2017 22:00:00 19.36667 C 14.75 g/m*3 19.37 C 0 km/h
24 29-08-2017 23:00:00 18.34167 C 14.26 g/m*3 18.34 C 0 km/h
25 30-08-2017 00:00:00 17.70833 C 13.96 g/m*3 17.71 C 0 km/h
Sensor: Nr:Datum:Temp:Abs-Feuchte:Windchill:Wind:
Aussen-T/F 26 30-08-2017 01:00:00 17.24167 C 13.71 g/m*3 17.24 C 0.13333 km/h
27 30-08-2017 02:00:00 16.90833 C 13.56 g/m*3 16.91 C 0 km/h
28 30-08-2017 03:00:00 16.50833 C 13.35 g/m*3 16.51 C 0 km/h
29 30-08-2017 04:00:00 16.15833 C 13.1 g/m*3 16.16 C 0 km/h
30 30-08-2017 05:00:00 15.80833 C 12.91 g/m*3 15.81 C 0 km/h
31 30-08-2017 06:00:00 15.60833 C 12.77 g/m*3 15.61 C 0 km/h
32 30-08-2017 07:00:00 15.65 C 12.83 g/m*3 15.65 C 0 km/h
33 30-08-2017 08:00:00 16.75833 C 13.83 g/m*3 16.76 C 0 km/h
34 30-08-2017 09:00:00 18.03333 C 14.93 g/m*3 18.03 C 0 km/h
35 30-08-2017 10:00:00 19.625 C 16.29 g/m*3 19.63 C 0 km/h
36 30-08-2017 11:00:00 21.84167 C 17.81 g/m*3 21.84 C 0 km/h
37 30-08-2017 12:00:00 23.65 C 18.7 g/m*3 23.65 C 0 km/h
38 30-08-2017 13:00:00 25.525 C 19.93 g/m*3 25.53 C 0 km/h
39 30-08-2017 14:00:00 26.44167 C 19.42 g/m*3 26.44 C 4.16667 km/h
40 30-08-2017 15:00:00 27.29167 C 19.16 g/m*3 27.29 C 5.23333 km/h
41 30-08-2017 16:00:00 25.55 C 19.37 g/m*3 25.55 C 0 km/h
42 30-08-2017 17:00:00 24.76667 C 18.78 g/m*3 24.77 C 0 km/h
43 30-08-2017 18:00:00 23.60833 C 17.82 g/m*3 23.61 C 0 km/h
44 30-08-2017 19:00:00 22.775 C 17.21 g/m*3 22.78 C 0 km/h
45 30-08-2017 20:00:00 21.95 C 16.48 g/m*3 21.95 C 0 km/h
46 30-08-2017 21:00:00 21.56667 C 16.17 g/m*3 21.57 C 0.53333 km/h
47 30-08-2017 22:00:00 21.775 C 16.2 g/m*3 21.78 C 0.94167 km/h
48 30-08-2017 23:00:00 21.36667 C 16.09 g/m*3 21.37 C 0 km/h
49 31-08-2017 00:00:00 20.7 C 15.86 g/m*3 20.7 C 0 km/h
50 31-08-2017 01:00:00 20.11667 C 15.4 g/m*3 20.12 C 0 km/h
Sensor: Nr:Datum:Temp:Abs-Feuchte:Windchill:Wind:
Aussen-T/F 51 31-08-2017 02:00:00 20.125 C 15.29 g/m*3 20.13 C 0 km/h
52 31-08-2017 03:00:00 19.94167 C 15.13 g/m*3 19.94 C 0 km/h
53 31-08-2017 04:00:00 19.8 C 14.97 g/m*3 19.8 C 0 km/h
54 31-08-2017 05:00:00 19.5 C 14.87 g/m*3 19.5 C 0 km/h
55 31-08-2017 06:00:00 19.25 C 14.9 g/m*3 19.25 C 0 km/h
56 31-08-2017 07:00:00 17.65833 C 13.13 g/m*3 17.66 C 10.33333 km/h
57 31-08-2017 08:00:00 15.56667 C 12.44 g/m*3 15.57 C 1.35 km/h
58 31-08-2017 09:00:00 15.15 C 12.24 g/m*3 15.15 C 2.825 km/h
59 31-08-2017 10:00:00 15.24167 C 12.28 g/m*3 15.24 C 2.94167 km/h
60 31-08-2017 11:00:00 16.15833 C 12.35 g/m*3 16.16 C 8.875 km/h
61 31-08-2017 12:00:00 17.025 C 12.28 g/m*3 17.02 C 11.55 km/h
62 31-08-2017 13:00:00 17.73333 C 12.09 g/m*3 17.73 C 9.65833 km/h
63 31-08-2017 14:00:00 17.23333 C 11.87 g/m*3 17.23 C 7.525 km/h
64 31-08-2017 15:00:00 16.11667 C 11.72 g/m*3 16.12 C 5.775 km/h
65 31-08-2017 16:00:00 15.96667 C 11.42 g/m*3 15.97 C 5.91667 km/h
66 31-08-2017 17:00:00 16.575 C 11.5 g/m*3 16.58 C 2.28333 km/h
67 31-08-2017 18:00:00 18.375 C 11.87 g/m*3 18.38 C 0 km/h
68 31-08-2017 19:00:00 17.10833 C 11.72 g/m*3 17.11 C 0 km/h
69 31-08-2017 20:00:00 14.76667 C 10.85 g/m*3 14.77 C 0 km/h
70 31-08-2017 21:00:00 13.51667 C 10.44 g/m*3 13.52 C 0 km/h
71 31-08-2017 22:00:00 12.80833 C 10.32 g/m*3 12.81 C 0 km/h
72 31-08-2017 23:00:00 12.33333 C 10.18 g/m*3 12.33 C 0 km/h
73 01-09-2017 00:00:00 12.125 C 10.15 g/m*3 12.13 C 0 km/h
74 01-09-2017 01:00:00 11.51667 C 9.79 g/m*3 11.52 C 0 km/h
75 01-09-2017 02:00:00 11.06667 C 9.55 g/m*3 11.07 C 0 km/h
Sensor: Nr:Datum:Temp:Abs-Feuchte:Windchill:Wind:
Aussen-T/F 76 01-09-2017 03:00:00 10.53333 C 9.23 g/m*3 10.53 C 0 km/h
77 01-09-2017 04:00:00 10.25833 C 9.15 g/m*3 10.26 C 0 km/h
78 01-09-2017 05:00:00 10.49167 C 9.31 g/m*3 10.49 C 0 km/h
79 01-09-2017 06:00:00 10.43333 C 9.27 g/m*3 10.43 C 0 km/h
80 01-09-2017 07:00:00 10.25833 C 9.17 g/m*3 10.26 C 0 km/h
81 01-09-2017 08:00:00 10.51667 C 9.4 g/m*3 10.52 C 0 km/h
82 01-09-2017 09:00:00 11.15833 C 9.81 g/m*3 11.16 C 0 km/h
83 01-09-2017 10:00:00 12.075 C 10.37 g/m*3 12.08 C 0 km/h
84 01-09-2017 11:00:00 13.30833 C 11.05 g/m*3 13.31 C 0 km/h
85 01-09-2017 12:00:00 15.61667 C 11.58 g/m*3 15.62 C 1.75 km/h
86 01-09-2017 13:00:00 17.9 C 11.46 g/m*3 17.9 C 1.06667 km/h
87 01-09-2017 14:00:00 18.7 C 12.06 g/m*3 18.7 C 2.4 km/h
88 01-09-2017 15:00:00 17.83333 C 10.27 g/m*3 17.83 C 9.41667 km/h
89 01-09-2017 16:00:00 17.85833 C 10.6 g/m*3 17.86 C 2.8 km/h
90 01-09-2017 17:00:00 18.00833 C 12.17 g/m*3 18.01 C 0 km/h
91 01-09-2017 18:00:00 18.06667 C 12.07 g/m*3 18.07 C 0.13333 km/h
92 01-09-2017 19:00:00 16.53333 C 11.61 g/m*3 16.53 C 0 km/h
93 01-09-2017 20:00:00 14.68333 C 10.88 g/m*3 14.68 C 0 km/h
94 01-09-2017 21:00:00 14.01667 C 10.66 g/m*3 14.02 C 0.13333 km/h
95 01-09-2017 22:00:00 13.24167 C 10.39 g/m*3 13.24 C 0 km/h
96 01-09-2017 23:00:00 13.23333 C 10.64 g/m*3 13.23 C 0 km/h
97 02-09-2017 00:00:00 13.25833 C 10.72 g/m*3 13.26 C 0 km/h
98 02-09-2017 01:00:00 13.05833 C 10.59 g/m*3 13.06 C 0 km/h
99 02-09-2017 02:00:00 12.70833 C 10.4 g/m*3 12.71 C 0 km/h
100 02-09-2017 03:00:00 12.64167 C 10.43 g/m*3 12.64 C 0 km/h
Sensor: Nr:Datum:Temp:Abs-Feuchte:Windchill:Wind:
Aussen-T/F 101 02-09-2017 04:00:00 12.41667 C 10.32 g/m*3 12.42 C 0 km/h
102 02-09-2017 05:00:00 12.35833 C 10.35 g/m*3 12.36 C 0 km/h
103 02-09-2017 06:00:00 12.15833 C 10.24 g/m*3 12.16 C 0 km/h
104 02-09-2017 07:00:00 12.43333 C 10.5 g/m*3 12.43 C 0 km/h
105 02-09-2017 08:00:00 12.75 C 10.72 g/m*3 12.75 C 0 km/h
106 02-09-2017 09:00:00 13.20833 C 11.03 g/m*3 13.21 C 0 km/h
107 02-09-2017 10:00:00 14.125 C 11.36 g/m*3 14.13 C 0 km/h
108 02-09-2017 11:00:00 15.525 C 11.46 g/m*3 15.53 C 0 km/h
109 02-09-2017 12:00:00 16.55833 C 11.25 g/m*3 16.56 C 2.13333 km/h
110 02-09-2017 13:00:00 17.33333 C 11.01 g/m*3 17.33 C 3.35833 km/h
111 02-09-2017 14:00:00 17.75833 C 11.18 g/m*3 17.76 C 7.66667 km/h
112 02-09-2017 15:00:00 17.61667 C 10.71 g/m*3 17.62 C 8.58333 km/h
113 02-09-2017 16:00:00 16.35833 C 11.45 g/m*3 16.36 C 3.35833 km/h
114 02-09-2017 17:00:00 15.16667 C 11.57 g/m*3 15.17 C 0.26667 km/h
115 02-09-2017 18:00:00 16.375 C 12.19 g/m*3 16.38 C 0 km/h
116 02-09-2017 19:00:00 15.7 C 11.9 g/m*3 15.7 C 0 km/h
117 02-09-2017 20:00:00 14.05 C 11.08 g/m*3 14.05 C 0 km/h
118 02-09-2017 21:00:00 13.44167 C 10.86 g/m*3 13.44 C 0 km/h
119 02-09-2017 22:00:00 12.96667 C 10.64 g/m*3 12.97 C 0 km/h
120 02-09-2017 23:00:00 12.33333 C 10.23 g/m*3 12.33 C 0 km/h
121 03-09-2017 00:00:00 11.50833 C 9.71 g/m*3 11.51 C 0 km/h
122 03-09-2017 01:00:00 10.88333 C 9.4 g/m*3 10.88 C 0 km/h
123 03-09-2017 02:00:00 10.49167 C 9.23 g/m*3 10.49 C 0 km/h
124 03-09-2017 03:00:00 9.91667 C 8.89 g/m*3 9.92 C 0 km/h
125 03-09-2017 04:00:00 9.99167 C 9.02 g/m*3 9.99 C 0 km/h
Sensor: Nr:Datum:Temp:Abs-Feuchte:Windchill:Wind:
Aussen-T/F 126 03-09-2017 05:00:00 10.31667 C 9.2 g/m*3 10.32 C 0 km/h
127 03-09-2017 06:00:00 9.99167 C 9.02 g/m*3 9.99 C 0 km/h
128 03-09-2017 07:00:00 9.925 C 8.98 g/m*3 9.93 C 0 km/h
129 03-09-2017 08:00:00 9.99167 C 9.02 g/m*3 9.99 C 0 km/h
130 03-09-2017 09:00:00 10.29167 C 9.19 g/m*3 10.29 C 0 km/h
131 03-09-2017 10:00:00 11.19167 C 9.68 g/m*3 11.19 C 0 km/h
132 03-09-2017 11:00:00 12.70833 C 10.36 g/m*3 12.71 C 0 km/h
133 03-09-2017 12:00:00 13.74167 C 10.72 g/m*3 13.74 C 0 km/h
134 03-09-2017 13:00:00 15.225 C 11.05 g/m*3 15.23 C 0 km/h
135 03-09-2017 14:00:00 16.91667 C 10.81 g/m*3 16.92 C 0 km/h
136 03-09-2017 15:00:00 17.61667 C 10.76 g/m*3 17.62 C 0 km/h
137 03-09-2017 16:00:00 19.89167 C 11.26 g/m*3 19.89 C 1.475 km/h
138 03-09-2017 17:00:00 21.40833 C 11.97 g/m*3 21.41 C 0.53333 km/h
139 03-09-2017 18:00:00 17.98333 C 11.84 g/m*3 17.98 C 0 km/h
140 03-09-2017 19:00:00 15.50833 C 11.02 g/m*3 15.51 C 0 km/h
141 03-09-2017 20:00:00 14.64167 C 10.62 g/m*3 14.64 C 0 km/h
142 03-09-2017 21:00:00 13.43333 C 10.11 g/m*3 13.43 C 0 km/h
143 03-09-2017 22:00:00 12.23333 C 9.58 g/m*3 12.23 C 0 km/h
144 03-09-2017 23:00:00 11.53333 C 9.43 g/m*3 11.53 C 0 km/h
145 04-09-2017 00:00:00 10.95 C 9.23 g/m*3 10.95 C 0 km/h
146 04-09-2017 01:00:00 10.375 C 8.99 g/m*3 10.38 C 0 km/h
147 04-09-2017 02:00:00 9.99167 C 8.87 g/m*3 9.99 C 0 km/h
148 04-09-2017 03:00:00 9.50833 C 8.65 g/m*3 9.51 C 0 km/h
149 04-09-2017 04:00:00 9.18333 C 8.5 g/m*3 9.18 C 0 km/h
150 04-09-2017 05:00:00 9.4 C 8.68 g/m*3 9.4 C 0 km/h
Sensor: Nr:Datum:Temp:Abs-Feuchte:Windchill:Wind:
Aussen-T/F 151 04-09-2017 06:00:00 9.65 C 8.82 g/m*3 9.65 C 0 km/h
152 04-09-2017 07:00:00 9.78333 C 8.9 g/m*3 9.78 C 0 km/h
153 04-09-2017 08:00:00 10.025 C 9.11 g/m*3 10.03 C 0 km/h
154 04-09-2017 09:00:00 10.55833 C 9.44 g/m*3 10.56 C 0 km/h
155 04-09-2017 10:00:00 11.50833 C 10 g/m*3 11.51 C 0 km/h
156 04-09-2017 11:00:00 13.44167 C 11.17 g/m*3 13.44 C 0 km/h
157 04-09-2017 12:00:00 16.19167 C 11.98 g/m*3 16.19 C 0 km/h
158 04-09-2017 13:00:00 18.41667 C 12.45 g/m*3 18.42 C 0 km/h
159 04-09-2017 14:00:00 19.00833 C 12.04 g/m*3 19.01 C 0 km/h
160 04-09-2017 15:00:00 18.94167 C 13.3 g/m*3 18.94 C 0 km/h
161 04-09-2017 16:00:00 19.26667 C 13.45 g/m*3 19.27 C 0 km/h
162 04-09-2017 17:00:00 18.44167 C 12.97 g/m*3 18.44 C 0 km/h
163 04-09-2017 18:00:00 17.21667 C 12.34 g/m*3 17.22 C 0 km/h
164 04-09-2017 19:00:00 16.05833 C 11.86 g/m*3 16.06 C 0 km/h
165 04-09-2017 20:00:00 15.825 C 11.96 g/m*3 15.83 C 0 km/h
166 04-09-2017 21:00:00 15.575 C 11.92 g/m*3 15.58 C 0 km/h
167 04-09-2017 22:00:00 15.38333 C 11.83 g/m*3 15.38 C 0 km/h
168 04-09-2017 23:00:00 15.35 C 11.92 g/m*3 15.35 C 0 km/h
169 05-09-2017 00:00:00 15.36667 C 12.01 g/m*3 15.37 C 0 km/h
170 05-09-2017 01:00:00 15.225 C 12.11 g/m*3 15.23 C 0 km/h
171 05-09-2017 02:00:00 15.1 C 12.16 g/m*3 15.1 C 0 km/h
172 05-09-2017 03:00:00 14.90833 C 12.11 g/m*3 14.91 C 0 km/h
173 05-09-2017 04:00:00 14.8 C 12.09 g/m*3 14.8 C 0 km/h
174 05-09-2017 05:00:00 14.425 C 11.84 g/m*3 14.43 C 0 km/h
175 05-09-2017 06:00:00 13.81667 C 11.39 g/m*3 13.82 C 0 km/h
Sensor: Nr:Datum:Temp:Abs-Feuchte:Windchill:Wind:
Aussen-T/F 176 05-09-2017 07:00:00 14.09167 C 11.64 g/m*3 14.09 C 0 km/h
177 05-09-2017 08:00:00 14.975 C 12.42 g/m*3 14.98 C 0 km/h
178 05-09-2017 09:00:00 15.48333 C 12.75 g/m*3 15.48 C 0 km/h
179 05-09-2017 10:00:00 16.25 C 13.38 g/m*3 16.25 C 0 km/h
180 05-09-2017 11:00:00 17.89167 C 14.6 g/m*3 17.89 C 0 km/h
181 05-09-2017 12:00:00 18.7 C 14.72 g/m*3 18.7 C 0 km/h
182 05-09-2017 13:00:00 20.425 C 15.86 g/m*3 20.43 C 0 km/h
183 05-09-2017 14:00:00 22.225 C 15.7 g/m*3 22.23 C 8.60833 km/h
184 05-09-2017 15:00:00 23.70833 C 15.39 g/m*3 23.71 C 9.81667 km/h
185 05-09-2017 16:00:00 23.9 C 16.41 g/m*3 23.9 C 3.075 km/h
186 05-09-2017 17:00:00 22.45833 C 16.07 g/m*3 22.46 C 1.2 km/h
187 05-09-2017 18:00:00 20.60833 C 15.27 g/m*3 20.61 C 0.13333 km/h
188 05-09-2017 19:00:00 19.90833 C 14.95 g/m*3 19.91 C 0 km/h
189 05-09-2017 20:00:00 19.28333 C 14.73 g/m*3 19.28 C 0 km/h
190 05-09-2017 21:00:00 18.7 C 14.5 g/m*3 18.7 C 0.13333 km/h
191 05-09-2017 22:00:00 18.4 C 14.39 g/m*3 18.4 C 0 km/h
192 05-09-2017 23:00:00 17.83333 C 14 g/m*3 17.83 C 0 km/h
193 06-09-2017 00:00:00 17.38333 C 13.86 g/m*3 17.38 C 0 km/h
194 06-09-2017 01:00:00 17.525 C 14.05 g/m*3 17.52 C 0 km/h
195 06-09-2017 02:00:00 17.65833 C 14.07 g/m*3 17.66 C 0 km/h
196 06-09-2017 03:00:00 17.725 C 13.93 g/m*3 17.73 C 0 km/h
197 06-09-2017 04:00:00 17.34167 C 13.59 g/m*3 17.34 C 0 km/h
198 06-09-2017 05:00:00 16.925 C 13.34 g/m*3 16.93 C 1.2 km/h
199 06-09-2017 06:00:00 17.475 C 13.44 g/m*3 17.48 C 7.51667 km/h
200 06-09-2017 07:00:00 17.46667 C 13.42 g/m*3 17.47 C 4.13333 km/h
Sensor: Nr:Datum:Temp:Abs-Feuchte:Windchill:Wind:
Aussen-T/F 201 06-09-2017 08:00:00 17.53333 C 13.32 g/m*3 17.53 C 4.41667 km/h
202 06-09-2017 09:00:00 18.45833 C 13.35 g/m*3 18.46 C 8.73333 km/h
203 06-09-2017 10:00:00 19.46667 C 13.16 g/m*3 19.47 C 13.3 km/h
204 06-09-2017 11:00:00 17.75833 C 12.44 g/m*3 17.76 C 9.675 km/h
205 06-09-2017 12:00:00 17.98333 C 11.19 g/m*3 17.98 C 13.825 km/h
206 06-09-2017 13:00:00 18.28333 C 10.34 g/m*3 18.28 C 11.96667 km/h
207 06-09-2017 14:00:00 18.09167 C 9.81 g/m*3 18.09 C 12.5 km/h
208 06-09-2017 15:00:00 18.68333 C 9.36 g/m*3 18.68 C 14.63333 km/h
209 06-09-2017 16:00:00 18.51667 C 9.45 g/m*3 18.52 C 11.00833 km/h
210 06-09-2017 17:00:00 18.74167 C 9.05 g/m*3 18.74 C 12.9 km/h
211 06-09-2017 18:00:00 17.94167 C 9.07 g/m*3 17.94 C 15.56667 km/h
212 06-09-2017 19:00:00 16.725 C 9.31 g/m*3 16.73 C 10.75 km/h
213 06-09-2017 20:00:00 15.65833 C 9.56 g/m*3 15.66 C 5.75 km/h
214 06-09-2017 21:00:00 14.725 C 9.77 g/m*3 14.73 C 2.00833 km/h
215 06-09-2017 22:00:00 14.575 C 9.95 g/m*3 14.58 C 1.6 km/h
216 06-09-2017 23:00:00 14.09167 C 10.02 g/m*3 14.09 C 0.13333 km/h
217 07-09-2017 00:00:00 12.975 C 9.68 g/m*3 12.98 C 0.4 km/h
218 07-09-2017 01:00:00 13.14167 C 9.86 g/m*3 13.14 C 3.86667 km/h
219 07-09-2017 02:00:00 13.35 C 10.01 g/m*3 13.35 C 2.40833 km/h
220 07-09-2017 03:00:00 13.09167 C 10.09 g/m*3 13.09 C 0.4 km/h
221 07-09-2017 04:00:00 13.11667 C 10.06 g/m*3 13.12 C 1.86667 km/h
222 07-09-2017 05:00:00 13.31667 C 10.13 g/m*3 13.32 C 2.4 km/h
223 07-09-2017 06:00:00 13.60833 C 10.25 g/m*3 13.61 C 3.2 km/h
224 07-09-2017 07:00:00 13.475 C 10.29 g/m*3 13.48 C 1.46667 km/h
225 07-09-2017 08:00:00 13.83333 C 10.36 g/m*3 13.83 C 4.94167 km/h
Sensor: Nr:Datum:Temp:Abs-Feuchte:Windchill:Wind:
Aussen-T/F 226 07-09-2017 09:00:00 14.65 C 10.62 g/m*3 14.65 C 8.86667 km/h
227 07-09-2017 10:00:00 15.575 C 10.89 g/m*3 15.58 C 7.25 km/h
228 07-09-2017 11:00:00 16.11667 C 11.02 g/m*3 16.12 C 6.7 km/h
229 07-09-2017 12:00:00 16.99167 C 11.15 g/m*3 16.99 C 7.65 km/h
230 07-09-2017 13:00:00 16.85833 C 11.25 g/m*3 16.86 C 2.69167 km/h
231 07-09-2017 14:00:00 17.28333 C 11.31 g/m*3 17.28 C 4.30833 km/h
232 07-09-2017 15:00:00 18.825 C 10.63 g/m*3 18.83 C 8.73333 km/h
233 07-09-2017 16:00:00 18.09167 C 10.73 g/m*3 18.09 C 8.06667 km/h
234 07-09-2017 17:00:00 18.10833 C 10.96 g/m*3 18.11 C 6.16667 km/h
235 07-09-2017 18:00:00 16.86667 C 10.87 g/m*3 16.87 C 3.61667 km/h
236 07-09-2017 19:00:00 16.4 C 10.85 g/m*3 16.4 C 2.4 km/h
237 07-09-2017 20:00:00 16.1 C 10.66 g/m*3 16.1 C 6.16667 km/h
238 07-09-2017 21:00:00 15.96667 C 10.47 g/m*3 15.97 C 6.84167 km/h
239 07-09-2017 22:00:00 15.79167 C 10.52 g/m*3 15.79 C 6.56667 km/h
240 07-09-2017 23:00:00 15.7 C 10.6 g/m*3 15.7 C 6.83333 km/h
241 08-09-2017 00:00:00 15.31667 C 10.66 g/m*3 15.32 C 2.13333 km/h
242 08-09-2017 01:00:00 14.33333 C 10.44 g/m*3 14.33 C 0.53333 km/h
243 08-09-2017 02:00:00 14.29167 C 10.39 g/m*3 14.29 C 2.8 km/h
244 08-09-2017 03:00:00 13.725 C 10.14 g/m*3 13.73 C 0 km/h
245 08-09-2017 04:00:00 13.55 C 10.17 g/m*3 13.55 C 2.80833 km/h
246 08-09-2017 05:00:00 13.68333 C 10.05 g/m*3 13.68 C 3.875 km/h
247 08-09-2017 06:00:00 13.74167 C 10.01 g/m*3 13.74 C 4.84167 km/h
248 08-09-2017 07:00:00 13.51667 C 9.97 g/m*3 13.52 C 1.60833 km/h
249 08-09-2017 08:00:00 14.1 C 10.15 g/m*3 14.1 C 4.14167 km/h
250 08-09-2017 09:00:00 15.35833 C 10.39 g/m*3 15.36 C 13.81667 km/h
Sensor: Nr:Datum:Temp:Abs-Feuchte:Windchill:Wind:
Aussen-T/F 251 08-09-2017 10:00:00 15.96667 C 10.57 g/m*3 15.97 C 14.9 km/h
252 08-09-2017 11:00:00 16.825 C 10.87 g/m*3 16.83 C 10.75 km/h
253 08-09-2017 12:00:00 17.49167 C 11.15 g/m*3 17.49 C 11.15833 km/h
254 08-09-2017 13:00:00 17.25833 C 11.22 g/m*3 17.26 C 9.13333 km/h
255 08-09-2017 14:00:00 17.99167 C 11.46 g/m*3 17.99 C 10.475 km/h
256 08-09-2017 15:00:00 18.325 C 11.59 g/m*3 18.33 C 12.9 km/h
257 08-09-2017 16:00:00 17.55 C 11.6 g/m*3 17.55 C 11.55833 km/h
258 08-09-2017 17:00:00 17.375 C 11.73 g/m*3 17.38 C 9.40833 km/h
259 08-09-2017 18:00:00 17.50833 C 11.85 g/m*3 17.51 C 6.73333 km/h
260 08-09-2017 19:00:00 17.05833 C 11.68 g/m*3 17.06 C 4.68333 km/h
261 08-09-2017 20:00:00 16.71667 C 11.56 g/m*3 16.72 C 5.35833 km/h
262 08-09-2017 21:00:00 16.63333 C 11.68 g/m*3 16.63 C 3.20833 km/h
263 08-09-2017 22:00:00 16.25833 C 11.58 g/m*3 16.26 C 2.53333 km/h
264 08-09-2017 23:00:00 16.775 C 11.55 g/m*3 16.77 C 4.81667 km/h
265 09-09-2017 00:00:00 16.58333 C 11.76 g/m*3 16.58 C 3.20833 km/h
266 09-09-2017 01:00:00 15.53333 C 11.91 g/m*3 15.53 C 0.13333 km/h
267 09-09-2017 02:00:00 14.85 C 11.85 g/m*3 14.85 C 0 km/h
268 09-09-2017 03:00:00 14.49167 C 11.72 g/m*3 14.49 C 0.13333 km/h
269 09-09-2017 04:00:00 14.30833 C 11.68 g/m*3 14.31 C 0 km/h
270 09-09-2017 05:00:00 14.28333 C 11.77 g/m*3 14.28 C 0.66667 km/h
271 09-09-2017 06:00:00 14.20833 C 11.73 g/m*3 14.21 C 0.26667 km/h
272 09-09-2017 07:00:00 14.2 C 11.72 g/m*3 14.2 C 1.6 km/h
273 09-09-2017 08:00:00 13.98333 C 11.57 g/m*3 13.98 C 8.31667 km/h
274 09-09-2017 09:00:00 13.95833 C 11.55 g/m*3 13.96 C 8.45833 km/h
275 09-09-2017 10:00:00 14.05833 C 11.6 g/m*3 14.06 C 6.44167 km/h
Sensor: Nr:Datum:Temp:Abs-Feuchte:Windchill:Wind:
Aussen-T/F 276 09-09-2017 11:00:00 14.46667 C 11.64 g/m*3 14.47 C 8.18333 km/h
277 09-09-2017 12:00:00 15.275 C 11.76 g/m*3 15.28 C 11.55 km/h
278 09-09-2017 13:00:00 16.34167 C 11.87 g/m*3 16.34 C 10.75 km/h
279 09-09-2017 14:00:00 16.35 C 11.9 g/m*3 16.35 C 11.43333 km/h
280 09-09-2017 15:00:00 16.33333 C 12.16 g/m*3 16.33 C 8.70833 km/h
281 09-09-2017 16:00:00 17.21667 C 12.17 g/m*3 17.22 C 8.33333 km/h
282 09-09-2017 17:00:00 17.54167 C 12.19 g/m*3 17.54 C 7.66667 km/h
283 09-09-2017 18:00:00 15.39167 C 11.28 g/m*3 15.39 C 4.55 km/h
284 09-09-2017 19:00:00 13.225 C 10.71 g/m*3 13.23 C 0.4 km/h
285 09-09-2017 20:00:00 12.90833 C 10.67 g/m*3 12.91 C 0.53333 km/h
286 09-09-2017 21:00:00 12.41667 C 10.39 g/m*3 12.42 C 0.26667 km/h
287 09-09-2017 22:00:00 11.35833 C 9.73 g/m*3 11.36 C 0 km/h
288 09-09-2017 23:00:00 10.93333 C 9.55 g/m*3 10.93 C 0 km/h
289 10-09-2017 00:00:00 10.44167 C 9.28 g/m*3 10.44 C 0 km/h
290 10-09-2017 01:00:00 10.45 C 9.3 g/m*3 10.45 C 0.13333 km/h
291 10-09-2017 02:00:00 11.36667 C 9.94 g/m*3 11.37 C 1.6 km/h
292 10-09-2017 03:00:00 11.06667 C 9.71 g/m*3 11.07 C 0 km/h
293 10-09-2017 04:00:00 10.85833 C 9.62 g/m*3 10.86 C 0.66667 km/h
294 10-09-2017 05:00:00 11.41667 C 9.97 g/m*3 11.42 C 0.13333 km/h
295 10-09-2017 06:00:00 11.125 C 9.79 g/m*3 11.13 C 1.06667 km/h
296 10-09-2017 07:00:00 10.66667 C 9.51 g/m*3 10.67 C 0.4 km/h
297 10-09-2017 08:00:00 10.86667 C 9.63 g/m*3 10.87 C 0.13333 km/h
298 10-09-2017 09:00:00 11.31667 C 9.9 g/m*3 11.32 C 2.94167 km/h
299 10-09-2017 10:00:00 12.1 C 10.4 g/m*3 12.1 C 3.60833 km/h
300 10-09-2017 11:00:00 13.54167 C 10.98 g/m*3 13.54 C 3.33333 km/h
Sensor: Nr:Datum:Temp:Abs-Feuchte:Windchill:Wind:
Aussen-T/F 301 10-09-2017 12:00:00 14.79167 C 10.81 g/m*3 14.79 C 7.50833 km/h
302 10-09-2017 13:00:00 14.91667 C 10.39 g/m*3 14.92 C 12.89167 km/h
303 10-09-2017 14:00:00 14.93333 C 10.14 g/m*3 14.93 C 15.7 km/h
304 10-09-2017 15:00:00 15.70833 C 10.04 g/m*3 15.71 C 15.7 km/h
305 10-09-2017 16:00:00 17.04167 C 10.5 g/m*3 17.04 C 9.00833 km/h
306 10-09-2017 17:00:00 18.9 C 11.35 g/m*3 18.9 C 6.175 km/h
307 10-09-2017 18:00:00 18.99167 C 11.82 g/m*3 18.99 C 1.06667 km/h
308 10-09-2017 19:00:00 16.40833 C 11.09 g/m*3 16.41 C 0.94167 km/h
309 10-09-2017 20:00:00 14.05833 C 10.62 g/m*3 14.06 C 0.8 km/h
310 10-09-2017 21:00:00 13.125 C 10.13 g/m*3 13.13 C 1.20833 km/h
311 10-09-2017 22:00:00 12.36667 C 9.66 g/m*3 12.37 C 0 km/h
312 10-09-2017 23:00:00 11.28333 C 9.37 g/m*3 11.28 C 0 km/h
313 11-09-2017 00:00:00 11.45 C 9.58 g/m*3 11.45 C 0.93333 km/h
314 11-09-2017 01:00:00 12.35833 C 9.86 g/m*3 12.36 C 2.13333 km/h
315 11-09-2017 02:00:00 13.43333 C 9.74 g/m*3 13.43 C 4.275 km/h
316 11-09-2017 03:00:00 14.11667 C 9.92 g/m*3 14.12 C 5.09167 km/h
317 11-09-2017 04:00:00 14.36667 C 10.14 g/m*3 14.37 C 5.36667 km/h
318 11-09-2017 05:00:00 14.05 C 10.29 g/m*3 14.05 C 3.34167 km/h
319 11-09-2017 06:00:00 13.63333 C 10.33 g/m*3 13.63 C 1.2 km/h
320 11-09-2017 07:00:00 13.475 C 10.5 g/m*3 13.48 C 0.93333 km/h
321 11-09-2017 08:00:00 14.06667 C 10.77 g/m*3 14.07 C 3.48333 km/h
322 11-09-2017 09:00:00 14.76667 C 11.2 g/m*3 14.77 C 5.9 km/h
323 11-09-2017 10:00:00 13.90833 C 11.08 g/m*3 13.91 C 4.025 km/h
324 11-09-2017 11:00:00 14.30833 C 11.49 g/m*3 14.31 C 4.00833 km/h
325 11-09-2017 12:00:00 14.30833 C 11.48 g/m*3 14.31 C 4.15833 km/h
Sensor: Nr:Datum:Temp:Abs-Feuchte:Windchill:Wind:
Aussen-T/F 326 11-09-2017 13:00:00 14.63333 C 11.37 g/m*3 14.63 C 9.925 km/h
327 11-09-2017 14:00:00 16.125 C 10.83 g/m*3 16.13 C 11.81667 km/h
328 11-09-2017 15:00:00 16.94167 C 10.27 g/m*3 16.94 C 13.03333 km/h
329 11-09-2017 16:00:00 16.95833 C 10.34 g/m*3 16.96 C 11.41667 km/h
330 11-09-2017 17:00:00 17.86667 C 10.87 g/m*3 17.87 C 10.9 km/h
331 11-09-2017 18:00:00 17.275 C 10.89 g/m*3 17.27 C 9.14167 km/h
332 11-09-2017 19:00:00 15.41667 C 10.72 g/m*3 15.42 C 4.29167 km/h
333 11-09-2017 20:00:00 13.31667 C 10.1 g/m*3 13.32 C 0.8 km/h
334 11-09-2017 21:00:00 12.75833 C 9.87 g/m*3 12.76 C 0.8 km/h
335 11-09-2017 22:00:00 13.125 C 10.07 g/m*3 13.13 C 3.21667 km/h
336 11-09-2017 23:00:00 13.34167 C 9.99 g/m*3 13.34 C 3.89167 km/h
337 12-09-2017 00:00:00 12.70833 C 9.85 g/m*3 12.71 C 2.14167 km/h
338 12-09-2017 01:00:00 13.425 C 9.96 g/m*3 13.43 C 4.28333 km/h
339 12-09-2017 02:00:00 13.45833 C 9.97 g/m*3 13.46 C 5.64167 km/h
340 12-09-2017 03:00:00 13.60833 C 9.93 g/m*3 13.61 C 4.69167 km/h
341 12-09-2017 04:00:00 13.64167 C 9.84 g/m*3 13.64 C 10.08333 km/h
342 12-09-2017 05:00:00 13.75833 C 9.81 g/m*3 13.76 C 9.15 km/h
343 12-09-2017 06:00:00 13.35833 C 9.83 g/m*3 13.36 C 9.93333 km/h
344 12-09-2017 07:00:00 13.525 C 9.95 g/m*3 13.53 C 8.6 km/h
345 12-09-2017 08:00:00 13.425 C 10.17 g/m*3 13.43 C 9.26667 km/h
346 12-09-2017 09:00:00 13.325 C 10.4 g/m*3 13.33 C 8.46667 km/h
347 12-09-2017 10:00:00 14.40833 C 10.61 g/m*3 14.41 C 9.25833 km/h
348 12-09-2017 11:00:00 15.39167 C 10.52 g/m*3 15.39 C 14.5 km/h
349 12-09-2017 12:00:00 16.05833 C 10.9 g/m*3 16.06 C 12.76667 km/h
350 12-09-2017 13:00:00 16.8 C 10.98 g/m*3 16.8 C 12.625 km/h
Sensor: Nr:Datum:Temp:Abs-Feuchte:Windchill:Wind:
Aussen-T/F 351 12-09-2017 14:00:00 16.93333 C 11.05 g/m*3 16.93 C 15.56667 km/h
352 12-09-2017 15:00:00 17.59167 C 11.19 g/m*3 17.59 C 10.475 km/h
353 12-09-2017 16:00:00 16.48333 C 11.47 g/m*3 16.48 C 9.275 km/h
354 12-09-2017 17:00:00 16.775 C 10.74 g/m*3 16.77 C 9.66667 km/h
355 12-09-2017 18:00:00 17.10833 C 10.84 g/m*3 17.11 C 2.80833 km/h
356 12-09-2017 19:00:00 14.04167 C 10.51 g/m*3 14.04 C 2.14167 km/h
357 12-09-2017 20:00:00 12.23333 C 10.02 g/m*3 12.23 C 0.13333 km/h
358 12-09-2017 21:00:00 11.66667 C 9.83 g/m*3 11.67 C 1.74167 km/h
359 12-09-2017 22:00:00 11.43333 C 9.77 g/m*3 11.43 C 3.20833 km/h
360 12-09-2017 23:00:00 11.48333 C 9.83 g/m*3 11.48 C 4.01667 km/h
361 13-09-2017 00:00:00 11.43333 C 9.81 g/m*3 11.43 C 1.74167 km/h
362 13-09-2017 01:00:00 11.425 C 9.82 g/m*3 11.43 C 0 km/h
363 13-09-2017 02:00:00 11.21667 C 9.72 g/m*3 11.22 C 1.06667 km/h
364 13-09-2017 03:00:00 11.65 C 9.84 g/m*3 11.65 C 4.40833 km/h
365 13-09-2017 04:00:00 12.46667 C 9.81 g/m*3 12.47 C 6.3 km/h
366 13-09-2017 05:00:00 13.5 C 9.77 g/m*3 13.5 C 17.16667 km/h
367 13-09-2017 06:00:00 12.94167 C 9.96 g/m*3 12.94 C 9.95 km/h
368 13-09-2017 07:00:00 12.78333 C 10.2 g/m*3 12.78 C 4.675 km/h
369 13-09-2017 08:00:00 13.35 C 10.74 g/m*3 13.35 C 7.39167 km/h
370 13-09-2017 09:00:00 14.41667 C 11.35 g/m*3 14.42 C 13.43333 km/h
371 13-09-2017 10:00:00 15.49167 C 11.99 g/m*3 15.49 C 11.55 km/h
372 13-09-2017 11:00:00 15.58333 C 12.52 g/m*3 15.58 C 6.03333 km/h
373 13-09-2017 12:00:00 16.25833 C 12.8 g/m*3 16.26 C 11.28333 km/h
374 13-09-2017 13:00:00 17.04167 C 11.63 g/m*3 17.04 C 16.1 km/h
375 13-09-2017 14:00:00 16.81667 C 11.08 g/m*3 16.82 C 17.96667 km/h
Sensor: Nr:Datum:Temp:Abs-Feuchte:Windchill:Wind:
Aussen-T/F 376 13-09-2017 15:00:00 18.2 C 11.57 g/m*3 18.2 C 13.425 km/h
377 13-09-2017 16:00:00 18.6 C 11.51 g/m*3 18.6 C 13.425 km/h
378 13-09-2017 17:00:00 17.99167 C 10.77 g/m*3 17.99 C 9.26667 km/h
379 13-09-2017 18:00:00 16.76667 C 10.57 g/m*3 16.77 C 12.48333 km/h
380 13-09-2017 19:00:00 15.35833 C 10.87 g/m*3 15.36 C 6.05 km/h
381 13-09-2017 20:00:00 14.075 C 11.03 g/m*3 14.08 C 1.86667 km/h
382 13-09-2017 21:00:00 13.44167 C 10.91 g/m*3 13.44 C 4.01667 km/h
383 13-09-2017 22:00:00 12.95833 C 10.74 g/m*3 12.96 C 4.00833 km/h
384 13-09-2017 23:00:00 12.79167 C 10.69 g/m*3 12.79 C 3.48333 km/h
385 14-09-2017 00:00:00 12.71667 C 10.7 g/m*3 12.72 C 4.83333 km/h
386 14-09-2017 01:00:00 12.61667 C 10.63 g/m*3 12.62 C 1.06667 km/h
387 14-09-2017 02:00:00 12.49167 C 10.55 g/m*3 12.49 C 0.53333 km/h
388 14-09-2017 03:00:00 12.125 C 10.31 g/m*3 12.13 C 2.66667 km/h
389 14-09-2017 04:00:00 11.86667 C 10.15 g/m*3 11.87 C 5.35 km/h
390 14-09-2017 05:00:00 11.65833 C 10.02 g/m*3 11.66 C 5.49167 km/h
391 14-09-2017 06:00:00 11.525 C 9.93 g/m*3 11.53 C 5.225 km/h
392 14-09-2017 07:00:00 11.48333 C 9.91 g/m*3 11.48 C 3.2 km/h
393 14-09-2017 08:00:00 11.56667 C 9.96 g/m*3 11.57 C 4.14167 km/h
394 14-09-2017 09:00:00 11.63333 C 9.97 g/m*3 11.63 C 9.675 km/h
395 14-09-2017 10:00:00 11.91667 C 10 g/m*3 11.92 C 7.65 km/h
396 14-09-2017 11:00:00 12.49167 C 9.88 g/m*3 12.49 C 10.20833 km/h
397 14-09-2017 12:00:00 13.34167 C 9.62 g/m*3 13.34 C 13.425 km/h
398 14-09-2017 13:00:00 13.89167 C 9.76 g/m*3 13.89 C 13.425 km/h
399 14-09-2017 14:00:00 13.075 C 9.81 g/m*3 13.08 C 12.20833 km/h
400 14-09-2017 15:00:00 11.75 C 9.68 g/m*3 11.75 C 14.36667 km/h
Sensor: Nr:Datum:Temp:Abs-Feuchte:Windchill:Wind:
Aussen-T/F 401 14-09-2017 16:00:00 13.05 C 9.73 g/m*3 13.05 C 14.49167 km/h
402 14-09-2017 17:00:00 12.91667 C 9.25 g/m*3 12.92 C 19.85 km/h
403 14-09-2017 18:00:00 11.09167 C 8.88 g/m*3 11.09 C 13.56667 km/h
404 14-09-2017 19:00:00 11.05833 C 9.09 g/m*3 11.06 C 7.39167 km/h
405 14-09-2017 20:00:00 10.61667 C 9.06 g/m*3 9.4 C 9.79167 km/h
406 14-09-2017 21:00:00 10.825 C 9.28 g/m*3 10.19 C 6.98333 km/h
407 14-09-2017 22:00:00 10.9 C 9.43 g/m*3 10.9 C 4.275 km/h
408 14-09-2017 23:00:00 10.95833 C 9.58 g/m*3 10.96 C 3.60833 km/h
409 15-09-2017 00:00:00 11.01667 C 9.62 g/m*3 11.02 C 4.94167 km/h
410 15-09-2017 01:00:00 10.625 C 9.3 g/m*3 10.63 C 2.40833 km/h
411 15-09-2017 02:00:00 10.41667 C 9.26 g/m*3 10.42 C 4.275 km/h
412 15-09-2017 03:00:00 10.70833 C 9.43 g/m*3 10.71 C 3.475 km/h
413 15-09-2017 04:00:00 10.70833 C 9.37 g/m*3 10.71 C 2.53333 km/h
414 15-09-2017 05:00:00 10.73333 C 9.42 g/m*3 10.73 C 1.73333 km/h
415 15-09-2017 06:00:00 10.025 C 8.94 g/m*3 10.03 C 0.66667 km/h
416 15-09-2017 07:00:00 9.79167 C 8.86 g/m*3 9.79 C 0 km/h
417 15-09-2017 08:00:00 10.56667 C 9.35 g/m*3 10.57 C 0 km/h
418 15-09-2017 09:00:00 11.41667 C 9.86 g/m*3 11.42 C 1.86667 km/h
419 15-09-2017 10:00:00 12.85833 C 10.25 g/m*3 12.86 C 6.85 km/h
420 15-09-2017 11:00:00 13.63333 C 10.21 g/m*3 13.63 C 10.35833 km/h
421 15-09-2017 12:00:00 14.85833 C 10.32 g/m*3 14.86 C 10.75 km/h
422 15-09-2017 13:00:00 15.13333 C 9.88 g/m*3 15.13 C 11.41667 km/h
423 15-09-2017 14:00:00 15.04167 C 9.88 g/m*3 15.04 C 10.76667 km/h
424 15-09-2017 15:00:00 15.09167 C 9.92 g/m*3 15.09 C 10.9 km/h
425 15-09-2017 16:00:00 15.74167 C 9.79 g/m*3 15.74 C 9.94167 km/h
Sensor: Nr:Datum:Temp:Abs-Feuchte:Windchill:Wind:
Aussen-T/F 426 15-09-2017 17:00:00 15.375 C 9.81 g/m*3 15.38 C 7.91667 km/h
427 15-09-2017 18:00:00 16.29167 C 10.18 g/m*3 16.29 C 2.94167 km/h
428 15-09-2017 19:00:00 14.65833 C 10.05 g/m*3 14.66 C 0 km/h
429 15-09-2017 20:00:00 11.66667 C 9.26 g/m*3 11.67 C 0 km/h
430 15-09-2017 21:00:00 11.06667 C 9.26 g/m*3 11.07 C 0 km/h
431 15-09-2017 22:00:00 10.35833 C 8.84 g/m*3 10.36 C 0 km/h
432 15-09-2017 23:00:00 9.31667 C 8.38 g/m*3 9.32 C 0 km/h
433 16-09-2017 00:00:00 8.91667 C 8.27 g/m*3 8.92 C 0 km/h
434 16-09-2017 01:00:00 8.11667 C 7.86 g/m*3 8.12 C 0.13333 km/h
435 16-09-2017 02:00:00 7.63333 C 7.67 g/m*3 7.63 C 0.13333 km/h
436 16-09-2017 03:00:00 7.15833 C 7.45 g/m*3 7.16 C 0.26667 km/h
437 16-09-2017 04:00:00 6.93333 C 7.39 g/m*3 6.93 C 0.4 km/h
438 16-09-2017 05:00:00 6.575 C 7.23 g/m*3 6.58 C 0 km/h
439 16-09-2017 06:00:00 6.41667 C 7.17 g/m*3 6.42 C 0.13333 km/h
440 16-09-2017 07:00:00 6.675 C 7.28 g/m*3 6.68 C 0.26667 km/h
441 16-09-2017 08:00:00 7.24167 C 7.61 g/m*3 7.24 C 1.2 km/h
442 16-09-2017 09:00:00 8.03333 C 8.02 g/m*3 8.03 C 4.13333 km/h
443 16-09-2017 10:00:00 8.95833 C 8.44 g/m*3 8.96 C 3.60833 km/h
444 16-09-2017 11:00:00 10.03333 C 8.91 g/m*3 10.03 C 2.8 km/h
445 16-09-2017 12:00:00 12.05833 C 9.48 g/m*3 12.06 C 4.80833 km/h
446 16-09-2017 13:00:00 13.85 C 9.09 g/m*3 13.85 C 10.875 km/h
447 16-09-2017 14:00:00 14.81667 C 8.94 g/m*3 14.82 C 9 km/h
448 16-09-2017 15:00:00 15.31667 C 9.76 g/m*3 15.32 C 3.23333 km/h
449 16-09-2017 16:00:00 15.775 C 9.32 g/m*3 15.78 C 7.525 km/h
450 16-09-2017 17:00:00 16.19167 C 9.23 g/m*3 16.19 C 8.85833 km/h
Sensor: Nr:Datum:Temp:Abs-Feuchte:Windchill:Wind:
Aussen-T/F 451 16-09-2017 18:00:00 14.325 C 9.96 g/m*3 14.33 C 0.26667 km/h
452 16-09-2017 19:00:00 13.39167 C 9.72 g/m*3 13.39 C 0 km/h
453 16-09-2017 20:00:00 11.53333 C 9.1 g/m*3 11.53 C 0 km/h
454 16-09-2017 21:00:00 11.05833 C 9.06 g/m*3 11.06 C 0 km/h
455 16-09-2017 22:00:00 10.04167 C 8.58 g/m*3 10.04 C 0 km/h
456 16-09-2017 23:00:00 8.79167 C 8.05 g/m*3 8.79 C 0 km/h
457 17-09-2017 00:00:00 8.45 C 7.99 g/m*3 8.45 C 0 km/h
458 17-09-2017 01:00:00 8.1 C 7.82 g/m*3 8.1 C 0 km/h
459 17-09-2017 02:00:00 7.45 C 7.53 g/m*3 7.45 C 0 km/h
460 17-09-2017 03:00:00 7.325 C 7.54 g/m*3 7.33 C 0 km/h
461 17-09-2017 04:00:00 7.75 C 7.79 g/m*3 7.75 C 0 km/h
462 17-09-2017 05:00:00 8.18333 C 8.03 g/m*3 8.18 C 0 km/h
463 17-09-2017 06:00:00 8.09167 C 7.98 g/m*3 8.09 C 0 km/h
464 17-09-2017 07:00:00 7.925 C 7.9 g/m*3 7.93 C 0 km/h
465 17-09-2017 08:00:00 8.425 C 8.17 g/m*3 8.43 C 0 km/h
466 17-09-2017 09:00:00 9.05 C 8.57 g/m*3 9.05 C 0.26667 km/h
467 17-09-2017 10:00:00 10.20833 C 9.24 g/m*3 10.21 C 0.13333 km/h
468 17-09-2017 11:00:00 11.06667 C 9.75 g/m*3 11.07 C 0.13333 km/h
469 17-09-2017 12:00:00 11.5 C 10.02 g/m*3 11.5 C 0 km/h
470 17-09-2017 13:00:00 12.35833 C 10.57 g/m*3 12.36 C 0.53333 km/h
471 17-09-2017 14:00:00 12.75833 C 10.71 g/m*3 12.76 C 0.53333 km/h
472 17-09-2017 15:00:00 12.275 C 10.26 g/m*3 12.28 C 0.66667 km/h
473 17-09-2017 16:00:00 13.20833 C 10.69 g/m*3 13.21 C 0 km/h
474 17-09-2017 17:00:00 13.20833 C 10.48 g/m*3 13.21 C 0.13333 km/h
475 17-09-2017 18:00:00 13.275 C 10.29 g/m*3 13.28 C 0 km/h
Sensor: Nr:Datum:Temp:Abs-Feuchte:Windchill:Wind:
Aussen-T/F 476 17-09-2017 19:00:00 11.6 C 9.64 g/m*3 11.6 C 1.2 km/h
477 17-09-2017 20:00:00 10.35833 C 9.05 g/m*3 10.36 C 0.53333 km/h
478 17-09-2017 21:00:00 9.625 C 8.72 g/m*3 9.63 C 0 km/h
479 17-09-2017 22:00:00 8.83333 C 8.33 g/m*3 8.83 C 0 km/h
480 17-09-2017 23:00:00 8.28333 C 8.08 g/m*3 8.28 C 0 km/h
481 18-09-2017 00:00:00 7.79167 C 7.83 g/m*3 7.79 C 0 km/h
482 18-09-2017 01:00:00 7.31667 C 7.6 g/m*3 7.32 C 0.26667 km/h
483 18-09-2017 02:00:00 7.05833 C 7.47 g/m*3 7.06 C 0 km/h
484 18-09-2017 03:00:00 6.66667 C 7.3 g/m*3 6.67 C 0 km/h
485 18-09-2017 04:00:00 6.40833 C 7.23 g/m*3 6.41 C 0 km/h
486 18-09-2017 05:00:00 6.5 C 7.27 g/m*3 6.5 C 0 km/h
487 18-09-2017 06:00:00 7.38333 C 7.71 g/m*3 7.38 C 2.53333 km/h
488 18-09-2017 07:00:00 7.91667 C 7.98 g/m*3 7.92 C 0.26667 km/h
489 18-09-2017 08:00:00 8.71667 C 8.44 g/m*3 8.72 C 3.08333 km/h
490 18-09-2017 09:00:00 9.425 C 8.82 g/m*3 8.35 C 7.91667 km/h
491 18-09-2017 10:00:00 10.19167 C 9.24 g/m*3 9.68 C 6.03333 km/h
492 18-09-2017 11:00:00 11.15 C 9.6 g/m*3 11.15 C 10.21667 km/h
493 18-09-2017 12:00:00 11.975 C 9.61 g/m*3 11.98 C 6.31667 km/h
494 18-09-2017 13:00:00 12.66667 C 9.85 g/m*3 12.67 C 4.41667 km/h
495 18-09-2017 14:00:00 13.93333 C 9.93 g/m*3 13.93 C 11.00833 km/h
496 18-09-2017 15:00:00 14.875 C 9.9 g/m*3 14.88 C 15.7 km/h
497 18-09-2017 16:00:00 15.325 C 9.79 g/m*3 15.33 C 12.49167 km/h
498 18-09-2017 17:00:00 15.68333 C 10.08 g/m*3 15.68 C 10.49167 km/h
499 18-09-2017 18:00:00 16.00833 C 10.3 g/m*3 16.01 C 3.75833 km/h
500 18-09-2017 19:00:00 12.84167 C 9.63 g/m*3 12.84 C 0 km/h
Sensor: Nr:Datum:Temp:Abs-Feuchte:Windchill:Wind:
Aussen-T/F 501 18-09-2017 20:00:00 11.20833 C 9.19 g/m*3 11.21 C 0 km/h
502 18-09-2017 21:00:00 10.475 C 8.93 g/m*3 10.48 C 0 km/h
503 18-09-2017 22:00:00 10.31667 C 8.98 g/m*3 10.32 C 0 km/h
504 18-09-2017 23:00:00 10.35 C 9.03 g/m*3 10.35 C 0 km/h
505 19-09-2017 00:00:00 10.45 C 9.11 g/m*3 10.45 C 1.6 km/h
506 19-09-2017 01:00:00 10.64167 C 9.09 g/m*3 10.64 C 1.73333 km/h
507 19-09-2017 02:00:00 10.85 C 9.05 g/m*3 10.85 C 1.33333 km/h
508 19-09-2017 03:00:00 10.80833 C 9 g/m*3 10.81 C 0.26667 km/h
509 19-09-2017 04:00:00 10.625 C 8.99 g/m*3 10.63 C 0.13333 km/h
510 19-09-2017 05:00:00 10.425 C 8.94 g/m*3 10.43 C 2.94167 km/h
511 19-09-2017 06:00:00 10.4 C 8.93 g/m*3 10.4 C 1.33333 km/h
512 19-09-2017 07:00:00 10.48333 C 9.03 g/m*3 10.48 C 0 km/h
513 19-09-2017 08:00:00 10.825 C 9.31 g/m*3 10.83 C 1.46667 km/h
514 19-09-2017 09:00:00 11.65 C 9.67 g/m*3 11.65 C 3.73333 km/h
515 19-09-2017 10:00:00 12.70833 C 10 g/m*3 12.71 C 6.025 km/h
516 19-09-2017 11:00:00 13.41667 C 10.39 g/m*3 13.42 C 4.53333 km/h
517 19-09-2017 12:00:00 14.10833 C 10.48 g/m*3 14.11 C 2 km/h
518 19-09-2017 13:00:00 13.80833 C 11.04 g/m*3 13.81 C 0.8 km/h
519 19-09-2017 14:00:00 14.05833 C 11.16 g/m*3 14.06 C 2.825 km/h
520 19-09-2017 15:00:00 13.39167 C 10.82 g/m*3 13.39 C 0.26667 km/h
521 19-09-2017 16:00:00 13.38333 C 10.88 g/m*3 13.38 C 0.53333 km/h
522 19-09-2017 17:00:00 13.825 C 11.3 g/m*3 13.83 C 0 km/h
523 19-09-2017 18:00:00 14.64167 C 11.67 g/m*3 14.64 C 0 km/h
524 19-09-2017 19:00:00 13.125 C 10.63 g/m*3 13.13 C 0 km/h
525 19-09-2017 20:00:00 12.15 C 10.13 g/m*3 12.15 C 0.26667 km/h
Sensor: Nr:Datum:Temp:Abs-Feuchte:Windchill:Wind:
Aussen-T/F 526 19-09-2017 21:00:00 11.05 C 9.54 g/m*3 11.05 C 0 km/h
527 19-09-2017 22:00:00 10.29167 C 9.15 g/m*3 10.29 C 0 km/h
528 19-09-2017 23:00:00 9.9 C 8.96 g/m*3 9.9 C 0 km/h
529 20-09-2017 00:00:00 9.34167 C 8.65 g/m*3 9.34 C 1.73333 km/h
530 20-09-2017 01:00:00 8.825 C 8.38 g/m*3 8.82 C 3.48333 km/h
531 20-09-2017 02:00:00 8.74167 C 8.4 g/m*3 8.74 C 3.21667 km/h
532 20-09-2017 03:00:00 8.76667 C 8.42 g/m*3 7.83 C 6.85 km/h
533 20-09-2017 04:00:00 8.73333 C 8.41 g/m*3 8.73 C 1.74167 km/h
534 20-09-2017 05:00:00 8.075 C 8.04 g/m*3 8.07 C 0 km/h
535 20-09-2017 06:00:00 7.60833 C 7.82 g/m*3 7.61 C 0 km/h
536 20-09-2017 07:00:00 7.91667 C 7.98 g/m*3 7.92 C 0 km/h
537 20-09-2017 08:00:00 8.89167 C 8.49 g/m*3 8.89 C 0.93333 km/h
538 20-09-2017 09:00:00 9.975 C 9.1 g/m*3 9.98 C 1.46667 km/h
539 20-09-2017 10:00:00 11 C 9.71 g/m*3 11 C 2.40833 km/h
540 20-09-2017 11:00:00 12.30833 C 10.36 g/m*3 12.31 C 4.14167 km/h
541 20-09-2017 12:00:00 13.66667 C 10.67 g/m*3 13.67 C 4.26667 km/h
542 20-09-2017 13:00:00 14.59167 C 10.84 g/m*3 14.59 C 3.86667 km/h
543 20-09-2017 14:00:00 15.05833 C 10.93 g/m*3 15.06 C 1.2 km/h
544 20-09-2017 15:00:00 15.2 C 11.47 g/m*3 15.2 C 3.49167 km/h
545 20-09-2017 16:00:00 16.45833 C 10.97 g/m*3 16.46 C 9.81667 km/h
546 20-09-2017 17:00:00 15.475 C 11.22 g/m*3 15.48 C 0.8 km/h
547 20-09-2017 18:00:00 13.975 C 10.8 g/m*3 13.98 C 0.53333 km/h
548 20-09-2017 19:00:00 13.38333 C 10.46 g/m*3 13.38 C 0.4 km/h
549 20-09-2017 20:00:00 12.675 C 9.97 g/m*3 12.68 C 0.53333 km/h
550 20-09-2017 21:00:00 11.26667 C 9.32 g/m*3 11.27 C 0 km/h
Sensor: Nr:Datum:Temp:Abs-Feuchte:Windchill:Wind:
Aussen-T/F 551 20-09-2017 22:00:00 10.31667 C 8.97 g/m*3 10.32 C 0 km/h
552 20-09-2017 23:00:00 9.39167 C 8.52 g/m*3 9.39 C 0 km/h
553 21-09-2017 00:00:00 8.80833 C 8.27 g/m*3 8.81 C 0 km/h
554 21-09-2017 01:00:00 8.26667 C 8 g/m*3 8.27 C 0 km/h
555 21-09-2017 02:00:00 7.83333 C 7.84 g/m*3 7.83 C 0 km/h
556 21-09-2017 03:00:00 7.38333 C 7.63 g/m*3 7.38 C 0 km/h
557 21-09-2017 04:00:00 7.19167 C 7.54 g/m*3 7.19 C 0 km/h
558 21-09-2017 05:00:00 7.425 C 7.67 g/m*3 7.43 C 0 km/h
559 21-09-2017 06:00:00 7.3 C 7.66 g/m*3 7.3 C 0 km/h
560 21-09-2017 07:00:00 7.21667 C 7.62 g/m*3 7.22 C 0 km/h
561 21-09-2017 08:00:00 7.2 C 7.61 g/m*3 7.2 C 0 km/h
562 21-09-2017 09:00:00 7.625 C 7.83 g/m*3 7.63 C 0 km/h
563 21-09-2017 10:00:00 8.55 C 8.31 g/m*3 8.55 C 0 km/h
564 21-09-2017 11:00:00 9.61667 C 8.9 g/m*3 9.62 C 0 km/h
565 21-09-2017 12:00:00 11.11667 C 9.87 g/m*3 11.12 C 0 km/h
566 21-09-2017 13:00:00 12.63333 C 10.8 g/m*3 12.63 C 0 km/h
567 21-09-2017 14:00:00 15.26667 C 11.26 g/m*3 15.27 C 0 km/h
568 21-09-2017 15:00:00 17.38333 C 11.14 g/m*3 17.38 C 0 km/h
569 21-09-2017 16:00:00 17.15 C 11.27 g/m*3 17.15 C 0 km/h
570 21-09-2017 17:00:00 16.96667 C 11.49 g/m*3 16.97 C 0 km/h
571 21-09-2017 18:00:00 15.7 C 11.28 g/m*3 15.7 C 0 km/h
572 21-09-2017 19:00:00 13.5 C 10.38 g/m*3 13.5 C 0 km/h
573 21-09-2017 20:00:00 12 C 9.69 g/m*3 12 C 0 km/h
574 21-09-2017 21:00:00 11.20833 C 9.31 g/m*3 11.21 C 0 km/h
575 21-09-2017 22:00:00 10.55833 C 9.08 g/m*3 10.56 C 0 km/h
Sensor: Nr:Datum:Temp:Abs-Feuchte:Windchill:Wind:
Aussen-T/F 576 21-09-2017 23:00:00 10.24167 C 8.97 g/m*3 10.24 C 0 km/h
577 22-09-2017 00:00:00 9.5 C 8.56 g/m*3 9.5 C 0 km/h
578 22-09-2017 01:00:00 8.75 C 8.22 g/m*3 8.75 C 0 km/h
579 22-09-2017 02:00:00 8.36667 C 8.06 g/m*3 8.37 C 0 km/h
580 22-09-2017 03:00:00 8.6 C 8.25 g/m*3 8.6 C 0 km/h
581 22-09-2017 04:00:00 8.025 C 7.95 g/m*3 8.03 C 0 km/h
582 22-09-2017 05:00:00 7.68333 C 7.78 g/m*3 7.68 C 0 km/h
583 22-09-2017 06:00:00 7.54167 C 7.72 g/m*3 7.54 C 0 km/h
584 22-09-2017 07:00:00 7.79167 C 7.91 g/m*3 7.79 C 0.13333 km/h
585 22-09-2017 08:00:00 7.85 C 7.94 g/m*3 7.85 C 0 km/h
586 22-09-2017 09:00:00 8.34167 C 8.2 g/m*3 8.34 C 0 km/h
587 22-09-2017 10:00:00 9.09167 C 8.6 g/m*3 9.09 C 0 km/h
588 22-09-2017 11:00:00 10.425 C 9.37 g/m*3 10.43 C 0 km/h
589 22-09-2017 12:00:00 12.25833 C 10.5 g/m*3 12.26 C 0 km/h
590 22-09-2017 13:00:00 14.525 C 11.72 g/m*3 14.53 C 0 km/h
591 22-09-2017 14:00:00 16.5 C 11.69 g/m*3 16.5 C 0 km/h
592 22-09-2017 15:00:00 16.34167 C 12.16 g/m*3 16.34 C 0 km/h
593 22-09-2017 16:00:00 17.05 C 12.54 g/m*3 17.05 C 0 km/h
594 22-09-2017 17:00:00 16.4 C 12.05 g/m*3 16.4 C 0 km/h
595 22-09-2017 18:00:00 16.35 C 11.8 g/m*3 16.35 C 0 km/h
596 22-09-2017 19:00:00 14.50833 C 10.45 g/m*3 14.51 C 0 km/h
597 22-09-2017 20:00:00 13.1 C 10.18 g/m*3 13.1 C 0 km/h
598 22-09-2017 21:00:00 11.78333 C 9.66 g/m*3 11.78 C 0 km/h
599 22-09-2017 22:00:00 11.4 C 9.61 g/m*3 11.4 C 0 km/h
600 22-09-2017 23:00:00 11.35833 C 9.64 g/m*3 11.36 C 0 km/h
Sensor: Nr:Datum:Temp:Abs-Feuchte:Windchill:Wind:
Aussen-T/F 601 23-09-2017 00:00:00 11.14167 C 9.53 g/m*3 11.14 C 0 km/h
602 23-09-2017 01:00:00 10.40833 C 9.19 g/m*3 10.41 C 0 km/h
603 23-09-2017 02:00:00 10.25 C 9.14 g/m*3 10.25 C 0 km/h
604 23-09-2017 03:00:00 10.39167 C 9.25 g/m*3 10.39 C 0.13333 km/h
605 23-09-2017 04:00:00 10.3 C 9.19 g/m*3 10.3 C 0 km/h
606 23-09-2017 05:00:00 10.58333 C 9.46 g/m*3 10.58 C 0 km/h
607 23-09-2017 06:00:00 10.73333 C 9.55 g/m*3 10.73 C 0.13333 km/h
608 23-09-2017 07:00:00 10.94167 C 9.67 g/m*3 10.94 C 0 km/h
609 23-09-2017 08:00:00 11.31667 C 9.9 g/m*3 11.32 C 0 km/h
610 23-09-2017 09:00:00 11.825 C 10.23 g/m*3 11.83 C 0 km/h
611 23-09-2017 10:00:00 12.60833 C 10.65 g/m*3 12.61 C 0 km/h
612 23-09-2017 11:00:00 14.39167 C 11.55 g/m*3 14.39 C 0.4 km/h
613 23-09-2017 12:00:00 15.575 C 11.59 g/m*3 15.58 C 0.26667 km/h
614 23-09-2017 13:00:00 16.69167 C 11.83 g/m*3 16.69 C 0 km/h
615 23-09-2017 14:00:00 17.65 C 11.76 g/m*3 17.65 C 0.4 km/h
616 23-09-2017 15:00:00 17.69167 C 11.83 g/m*3 17.69 C 0 km/h
617 23-09-2017 16:00:00 18.3 C 11.77 g/m*3 18.3 C 0.4 km/h
618 23-09-2017 17:00:00 19.75833 C 11.61 g/m*3 19.76 C 3.48333 km/h
619 23-09-2017 18:00:00 18.69167 C 11.79 g/m*3 18.69 C 4.55833 km/h
620 23-09-2017 19:00:00 16.18333 C 11.54 g/m*3 16.18 C 0.93333 km/h
621 23-09-2017 20:00:00 14.40833 C 10.98 g/m*3 14.41 C 0 km/h
622 23-09-2017 21:00:00 13.4 C 10.63 g/m*3 13.4 C 0 km/h
623 23-09-2017 22:00:00 12.5 C 10.26 g/m*3 12.5 C 0 km/h
624 23-09-2017 23:00:00 11.56667 C 9.78 g/m*3 11.57 C 0 km/h
625 24-09-2017 00:00:00 11 C 9.51 g/m*3 11 C 0 km/h
Sensor: Nr:Datum:Temp:Abs-Feuchte:Windchill:Wind:
Aussen-T/F 626 24-09-2017 01:00:00 10.44167 C 9.22 g/m*3 10.44 C 0 km/h
627 24-09-2017 02:00:00 9.85833 C 8.93 g/m*3 9.86 C 0 km/h
628 24-09-2017 03:00:00 9.46667 C 8.72 g/m*3 9.47 C 0 km/h
629 24-09-2017 04:00:00 9.96667 C 9.06 g/m*3 9.97 C 0 km/h
630 24-09-2017 05:00:00 10.30833 C 9.29 g/m*3 10.31 C 0 km/h
631 24-09-2017 06:00:00 10.4 C 9.35 g/m*3 10.4 C 0.13333 km/h
632 24-09-2017 07:00:00 10.34167 C 9.31 g/m*3 10.34 C 0 km/h
633 24-09-2017 08:00:00 10.45 C 9.38 g/m*3 10.45 C 0 km/h
634 24-09-2017 09:00:00 10.60833 C 9.47 g/m*3 10.61 C 0 km/h
635 24-09-2017 10:00:00 11.13333 C 9.79 g/m*3 11.13 C 0 km/h
636 24-09-2017 11:00:00 11.975 C 10.32 g/m*3 11.98 C 0 km/h
637 24-09-2017 12:00:00 12.88333 C 10.89 g/m*3 12.88 C 0 km/h
638 24-09-2017 13:00:00 14.225 C 11.37 g/m*3 14.23 C 0 km/h
639 24-09-2017 14:00:00 15.75 C 11.82 g/m*3 15.75 C 0 km/h
640 24-09-2017 15:00:00 17.15833 C 12.45 g/m*3 17.16 C 0 km/h
641 24-09-2017 16:00:00 18.00833 C 12.75 g/m*3 18.01 C 0.13333 km/h
642 24-09-2017 17:00:00 16.93333 C 12.56 g/m*3 16.93 C 0.13333 km/h
643 24-09-2017 18:00:00 16.03333 C 12.26 g/m*3 16.03 C 0.13333 km/h
644 24-09-2017 19:00:00 15.15 C 11.79 g/m*3 15.15 C 0 km/h
645 24-09-2017 20:00:00 13.78333 C 10.91 g/m*3 13.78 C 0 km/h
646 24-09-2017 21:00:00 12.675 C 10.32 g/m*3 12.68 C 0 km/h
647 24-09-2017 22:00:00 11.66667 C 9.8 g/m*3 11.67 C 0 km/h
648 24-09-2017 23:00:00 10.94167 C 9.47 g/m*3 10.94 C 0 km/h
649 25-09-2017 00:00:00 10.29167 C 9.12 g/m*3 10.29 C 0 km/h
650 25-09-2017 01:00:00 9.75833 C 8.88 g/m*3 9.76 C 0 km/h
Sensor: Nr:Datum:Temp:Abs-Feuchte:Windchill:Wind:
Aussen-T/F 651 25-09-2017 02:00:00 9.50833 C 8.77 g/m*3 9.51 C 0 km/h
652 25-09-2017 03:00:00 9.86667 C 8.99 g/m*3 9.87 C 0 km/h
653 25-09-2017 04:00:00 9.85833 C 9.03 g/m*3 9.86 C 0.13333 km/h
654 25-09-2017 05:00:00 9.8 C 9 g/m*3 9.8 C 0 km/h
655 25-09-2017 06:00:00 9.925 C 9.07 g/m*3 9.93 C 0 km/h
656 25-09-2017 07:00:00 10.03333 C 9.13 g/m*3 10.03 C 0 km/h
657 25-09-2017 08:00:00 10.41667 C 9.36 g/m*3 10.42 C 0 km/h
658 25-09-2017 09:00:00 11.38333 C 9.99 g/m*3 11.38 C 0.13333 km/h
659 25-09-2017 10:00:00 12.525 C 10.7 g/m*3 12.53 C 1.06667 km/h
660 25-09-2017 11:00:00 13.075 C 10.85 g/m*3 13.08 C 0.53333 km/h
661 25-09-2017 12:00:00 13.86667 C 11.22 g/m*3 13.87 C 0.53333 km/h
662 25-09-2017 13:00:00 15.69167 C 11.46 g/m*3 15.69 C 1.33333 km/h
663 25-09-2017 14:00:00 15.95 C 11.89 g/m*3 15.95 C 0.26667 km/h
664 25-09-2017 15:00:00 16.275 C 11.96 g/m*3 16.27 C 0 km/h
665 25-09-2017 16:00:00 17.25833 C 12.14 g/m*3 17.26 C 2.8 km/h
666 25-09-2017 17:00:00 17.11667 C 12.4 g/m*3 17.12 C 0 km/h
667 25-09-2017 18:00:00 15.725 C 11.96 g/m*3 15.73 C 0 km/h
668 25-09-2017 19:00:00 14.85833 C 11.56 g/m*3 14.86 C 0 km/h
669 25-09-2017 20:00:00 14.48333 C 11.43 g/m*3 14.48 C 0 km/h
670 25-09-2017 21:00:00 14.21667 C 11.31 g/m*3 14.22 C 0.13333 km/h
671 25-09-2017 22:00:00 13.575 C 10.88 g/m*3 13.58 C 0 km/h
672 25-09-2017 23:00:00 13.11667 C 10.73 g/m*3 13.12 C 0 km/h
673 26-09-2017 00:00:00 12.44167 C 10.3 g/m*3 12.44 C 0 km/h
674 26-09-2017 01:00:00 11.88333 C 10.05 g/m*3 11.88 C 0 km/h
675 26-09-2017 02:00:00 11.275 C 9.71 g/m*3 11.28 C 0 km/h
Sensor: Nr:Datum:Temp:Abs-Feuchte:Windchill:Wind:
Aussen-T/F 676 26-09-2017 03:00:00 11.275 C 9.78 g/m*3 11.28 C 0 km/h
677 26-09-2017 04:00:00 11.2 C 9.73 g/m*3 11.2 C 0 km/h
678 26-09-2017 05:00:00 11.14167 C 9.7 g/m*3 11.14 C 0 km/h
679 26-09-2017 06:00:00 10.68333 C 9.42 g/m*3 10.68 C 0 km/h
680 26-09-2017 07:00:00 10.56667 C 9.42 g/m*3 10.57 C 0 km/h
681 26-09-2017 08:00:00 11.26667 C 9.87 g/m*3 11.27 C 0 km/h
682 26-09-2017 09:00:00 11.73333 C 10.17 g/m*3 11.73 C 0.26667 km/h
683 26-09-2017 10:00:00 11.96667 C 10.25 g/m*3 11.97 C 0 km/h
684 26-09-2017 11:00:00 12.50833 C 10.51 g/m*3 12.51 C 0.53333 km/h
685 26-09-2017 12:00:00 13.66667 C 11.11 g/m*3 13.67 C 0 km/h
686 26-09-2017 13:00:00 15.04167 C 11.74 g/m*3 15.04 C 0.13333 km/h
687 26-09-2017 14:00:00 17.65 C 12.12 g/m*3 17.65 C 0.53333 km/h
688 26-09-2017 15:00:00 18.01667 C 12.13 g/m*3 18.02 C 1.06667 km/h
689 26-09-2017 16:00:00 17.98333 C 12.65 g/m*3 17.98 C 0.26667 km/h
690 26-09-2017 17:00:00 17.71667 C 12.99 g/m*3 17.72 C 0 km/h
691 26-09-2017 18:00:00 17.91667 C 12.9 g/m*3 17.92 C 0 km/h
692 26-09-2017 19:00:00 15.78333 C 11.93 g/m*3 15.78 C 0.13333 km/h
693 26-09-2017 20:00:00 14.50833 C 11.45 g/m*3 14.51 C 0 km/h
694 26-09-2017 21:00:00 13.825 C 11.11 g/m*3 13.83 C 0 km/h
695 26-09-2017 22:00:00 12.75833 C 10.5 g/m*3 12.76 C 0 km/h
696 26-09-2017 23:00:00 12.175 C 10.23 g/m*3 12.18 C 0 km/h
697 27-09-2017 00:00:00 11.625 C 9.92 g/m*3 11.63 C 0 km/h
698 27-09-2017 01:00:00 11.15833 C 9.68 g/m*3 11.16 C 0 km/h
699 27-09-2017 02:00:00 10.79167 C 9.48 g/m*3 10.79 C 0 km/h
700 27-09-2017 03:00:00 10.25833 C 9.19 g/m*3 10.26 C 0 km/h
Sensor: Nr:Datum:Temp:Abs-Feuchte:Windchill:Wind:
Aussen-T/F 701 27-09-2017 04:00:00 10.575 C 9.43 g/m*3 10.58 C 0 km/h
702 27-09-2017 05:00:00 10.60833 C 9.47 g/m*3 10.61 C 0 km/h
703 27-09-2017 06:00:00 10.56667 C 9.45 g/m*3 10.57 C 0 km/h
704 27-09-2017 07:00:00 10.49167 C 9.4 g/m*3 10.49 C 0 km/h
705 27-09-2017 08:00:00 10.675 C 9.51 g/m*3 10.68 C 0 km/h
706 27-09-2017 09:00:00 11.44167 C 9.98 g/m*3 11.44 C 0 km/h
707 27-09-2017 10:00:00 11.90833 C 10.28 g/m*3 11.91 C 0 km/h
708 27-09-2017 11:00:00 12.75833 C 10.84 g/m*3 12.76 C 0 km/h
709 27-09-2017 12:00:00 13.525 C 11.21 g/m*3 13.53 C 0 km/h
710 27-09-2017 13:00:00 14.575 C 11.87 g/m*3 14.58 C 0 km/h
711 27-09-2017 14:00:00 15.70833 C 12.61 g/m*3 15.71 C 0 km/h
712 27-09-2017 15:00:00 17.25 C 13.08 g/m*3 17.25 C 0 km/h
713 27-09-2017 16:00:00 17.475 C 13.32 g/m*3 17.48 C 0 km/h
714 27-09-2017 17:00:00 17.89167 C 13.52 g/m*3 17.89 C 0 km/h
715 27-09-2017 18:00:00 18.18333 C 13.19 g/m*3 18.18 C 0 km/h
716 27-09-2017 19:00:00 15.875 C 11.98 g/m*3 15.88 C 0 km/h
717 27-09-2017 20:00:00 14.30833 C 11.22 g/m*3 14.31 C 0 km/h
718 27-09-2017 21:00:00 13.04167 C 10.63 g/m*3 13.04 C 0 km/h
719 27-09-2017 22:00:00 12.56667 C 10.48 g/m*3 12.57 C 0 km/h
720 27-09-2017 23:00:00 12.35833 C 10.43 g/m*3 12.36 C 0 km/h
721 28-09-2017 00:00:00 12.25833 C 10.4 g/m*3 12.26 C 0.26667 km/h
722 28-09-2017 01:00:00 11.85 C 10.14 g/m*3 11.85 C 0 km/h
723 28-09-2017 02:00:00 11.525 C 9.94 g/m*3 11.53 C 0 km/h
724 28-09-2017 03:00:00 11.125 C 9.7 g/m*3 11.13 C 0 km/h
725 28-09-2017 04:00:00 11.05 C 9.71 g/m*3 11.05 C 0 km/h
Sensor: Nr:Datum:Temp:Abs-Feuchte:Windchill:Wind:
Aussen-T/F 726 28-09-2017 05:00:00 11.25 C 9.86 g/m*3 11.25 C 0 km/h
727 28-09-2017 06:00:00 11.23333 C 9.85 g/m*3 11.23 C 0 km/h
728 28-09-2017 07:00:00 11.26667 C 9.87 g/m*3 11.27 C 0 km/h
729 28-09-2017 08:00:00 11.4 C 9.96 g/m*3 11.4 C 0 km/h
730 28-09-2017 09:00:00 12.01667 C 10.35 g/m*3 12.02 C 0 km/h
731 28-09-2017 10:00:00 12.83333 C 10.93 g/m*3 12.83 C 0 km/h
732 28-09-2017 11:00:00 13.96667 C 11.69 g/m*3 13.97 C 0 km/h
733 28-09-2017 12:00:00 15.475 C 12.59 g/m*3 15.48 C 0 km/h
734 28-09-2017 13:00:00 17.21667 C 13.5 g/m*3 17.22 C 0 km/h
735 28-09-2017 14:00:00 18.73333 C 14.44 g/m*3 18.73 C 0 km/h
736 28-09-2017 15:00:00 19.40833 C 14.91 g/m*3 19.41 C 0 km/h
737 28-09-2017 16:00:00 19.825 C 15.18 g/m*3 19.83 C 0 km/h
738 28-09-2017 17:00:00 19.69167 C 14.99 g/m*3 19.69 C 0 km/h
739 28-09-2017 18:00:00 18.475 C 14.1 g/m*3 18.48 C 0 km/h
740 28-09-2017 19:00:00 17.64167 C 13.53 g/m*3 17.64 C 0 km/h
741 28-09-2017 20:00:00 17.45 C 13.43 g/m*3 17.45 C 0 km/h
742 28-09-2017 21:00:00 16.84167 C 13.27 g/m*3 16.84 C 0 km/h
743 28-09-2017 22:00:00 16.43333 C 13.03 g/m*3 16.43 C 0 km/h
744 28-09-2017 23:00:00 16.2 C 12.96 g/m*3 16.2 C 0 km/h

Maximal/Minimal-Werte vom 29.08.2017 - 28.09.2017

Sensor Min Max Avg
Temp
(Aussen-T/F)
6.2 °C
16-09-2017  06:10:00
29.1 °C
29-08-2017  17:00:00
13.91 °C
Abs-Feuchte
(Aussen-T/F)
7.17 g/m*3
16-09-2017  06:00:00
19.93 g/m*3
30-08-2017  13:00:00
10.78 g/m*3
Windchill
(Aussen-T/F)
6.41 C
18-09-2017  04:00:00
28.87 C
29-08-2017  17:00:00
13.89 C

Die Daten stammen von einer Davis Vantage Pro 2 Wetter-Station und werden unter Linux mit der Software wview2wettercgi und aufbereitet. Alle Angaben erfolgen ohne Gewähr für ihre Vollständigkeit oder Richtigkeit.
Kontakt: Rainer Krienke krienke@uni-koblenz.de . Meine Webseiten an der Uni Koblenz oder privat.
Version: $Revision: 0.78 $